Time;durP1;ratioP1;P1;durP2;ratioP2;P2;SDS_P1;SDS_P2;PMS_P1;PMS_P2;Temp;Humidity;BMP_temperature;BMP_pressure;BME280_temperature;BME280_humidity;BME280_pressure;Samples;Min_cycle;Max_cycle;Signal;HPM_P1;HPM_P2
2023/02/05 00:00:27;;;;;;;3.17;1.80;;;3.30;46.90;;;;;;6276128;28;20994;-64
2023/02/05 00:03:30;;;;;;;2.60;2.40;;;3.40;47.00;;;;;;6276012;28;20486;-65
2023/02/05 00:06:33;;;;;;;2.00;1.70;;;3.40;46.90;;;;;;6275644;28;20489;-65
2023/02/05 00:09:39;;;;;;;1.27;1.17;;;3.40;46.60;;;;;;6275702;28;20580;-65
2023/02/05 00:12:42;;;;;;;2.60;1.47;;;3.40;46.00;;;;;;6276055;28;20442;-64
2023/02/05 00:15:47;;;;;;;1.80;1.37;;;3.30;45.50;;;;;;6275381;28;20496;-65
2023/02/05 00:18:51;;;;;;;2.03;1.60;;;3.30;45.90;;;;;;6275769;28;20477;-65
2023/02/05 00:21:54;;;;;;;1.30;1.20;;;3.30;46.00;;;;;;6275326;28;20461;-65
2023/02/05 00:24:57;;;;;;;1.00;1.00;;;3.20;45.90;;;;;;6276251;28;20442;-65
2023/02/05 00:28:00;;;;;;;1.07;1.03;;;3.30;45.20;;;;;;6273937;28;20477;-65
2023/02/05 00:31:10;;;;;;;1.63;1.20;;;3.30;45.20;;;;;;6275495;28;20458;-65
2023/02/05 00:34:13;;;;;;;2.20;1.20;;;3.30;45.20;;;;;;6275511;28;20471;-65
2023/02/05 00:37:16;;;;;;;1.20;1.10;;;3.30;44.90;;;;;;6275268;28;20950;-65
2023/02/05 00:40:20;;;;;;;1.10;1.10;;;3.30;45.20;;;;;;6275449;28;20489;-64
2023/02/05 00:43:23;;;;;;;1.10;1.10;;;3.30;45.00;;;;;;6274973;28;20474;-64
2023/02/05 00:46:28;;;;;;;1.07;1.07;;;3.30;44.70;;;;;;6275407;28;20973;-64
2023/02/05 00:49:31;;;;;;;2.00;1.50;;;3.30;44.50;;;;;;6274422;28;20989;-64
2023/02/05 00:52:34;;;;;;;1.67;1.57;;;3.30;44.50;;;;;;6275297;28;20474;-65
2023/02/05 00:55:37;;;;;;;1.57;1.27;;;3.30;44.50;;;;;;6274753;28;20984;-65
2023/02/05 00:58:46;;;;;;;0.90;0.90;;;3.30;44.50;;;;;;6275041;28;20486;-65
2023/02/05 01:01:50;;;;;;;1.50;1.40;;;3.30;44.50;;;;;;6275124;28;20470;-65
2023/02/05 01:04:54;;;;;;;1.93;1.23;;;3.30;44.50;;;;;;6274747;28;21137;-64
2023/02/05 01:07:58;;;;;;;1.20;1.10;;;3.20;44.60;;;;;;6274515;28;20474;-65
2023/02/05 01:11:01;;;;;;;1.20;1.20;;;3.20;44.70;;;;;;6274903;28;20473;-65
2023/02/05 01:14:05;;;;;;;1.00;1.00;;;3.20;44.90;;;;;;6274644;28;20474;-65
2023/02/05 01:17:09;;;;;;;5.70;5.20;;;3.20;45.00;;;;;;6274435;28;20481;-65
2023/02/05 01:20:14;;;;;;;6.20;5.47;;;3.20;44.80;;;;;;6274252;28;20478;-65
2023/02/05 01:23:17;;;;;;;4.47;3.60;;;3.20;45.00;;;;;;6274454;28;20462;-65
2023/02/05 01:26:20;;;;;;;2.20;1.93;;;3.10;44.90;;;;;;6274077;28;20799;-65
2023/02/05 01:29:24;;;;;;;2.73;2.53;;;3.10;45.10;;;;;;6274012;28;20470;-65
2023/02/05 01:32:30;;;;;;;1.90;1.80;;;3.10;45.20;;;;;;6274176;28;20470;-65
2023/02/05 01:35:34;;;;;;;1.90;1.47;;;3.10;45.10;;;;;;6274569;28;20474;-64
2023/02/05 01:38:37;;;;;;;1.30;1.20;;;3.10;45.20;;;;;;6277140;28;20492;-64
2023/02/05 01:41:41;;;;;;;2.20;1.30;;;3.10;45.20;;;;;;6282814;28;20474;-65
2023/02/05 01:45:05;;;;;;;1.17;1.00;;;3.10;45.20;;;;;;6283557;28;20474;-65
2023/02/05 01:48:10;;;;;;;1.30;1.20;;;3.10;45.30;;;;;;6282342;28;20827;-65
2023/02/05 01:51:15;;;;;;;34.50;19.10;;;3.00;45.00;;;;;;6282120;28;21001;-64
2023/02/05 01:54:21;;;;;;;23.93;18.47;;;3.00;45.40;;;;;;6282389;28;20481;-65
2023/02/05 01:57:25;;;;;;;3.40;3.10;;;3.00;45.80;;;;;;6282377;28;20792;-65
2023/02/05 02:00:28;;;;;;;1.30;1.20;;;3.00;46.00;;;;;;6282058;28;20999;-65
2023/02/05 02:03:33;;;;;;;1.53;1.43;;;3.00;46.30;;;;;;6282114;28;20473;-65
2023/02/05 02:06:37;;;;;;;1.23;1.20;;;3.00;46.00;;;;;;6282031;28;20470;-65
2023/02/05 02:09:42;;;;;;;2.40;2.20;;;3.00;45.80;;;;;;6281910;28;20493;-64
2023/02/05 02:12:48;;;;;;;1.70;1.60;;;3.00;45.80;;;;;;6282302;28;20498;-65
2023/02/05 02:15:52;;;;;;;1.60;1.33;;;2.90;46.00;;;;;;6282297;28;20756;-65
2023/02/05 02:18:57;;;;;;;1.13;1.10;;;2.90;45.80;;;;;;6281822;28;20545;-65
2023/02/05 02:22:30;;;;;;;1.80;1.50;;;2.80;46.20;;;;;;6282192;28;20744;-66
2023/02/05 02:26:11;;;;;;;1.83;1.73;;;2.80;47.00;;;;;;6279207;28;20466;-66
2023/02/05 02:29:22;;;;;;;7.27;3.70;;;2.80;47.70;;;;;;6281697;28;20478;-65
2023/02/05 02:32:41;;;;;;;2.10;1.60;;;2.70;48.00;;;;;;6281968;28;20470;-66
2023/02/05 02:35:48;;;;;;;2.00;1.40;;;2.70;48.00;;;;;;6281970;28;20765;-65
2023/02/05 02:38:56;;;;;;;4.73;2.40;;;2.70;48.00;;;;;;6282077;28;20489;-66
2023/02/05 02:42:04;;;;;;;2.10;1.63;;;2.70;48.10;;;;;;6281989;28;20481;-66
2023/02/05 02:45:13;;;;;;;2.30;1.40;;;2.70;48.10;;;;;;6282134;28;20978;-65
2023/02/05 02:48:19;;;;;;;1.63;1.53;;;2.60;47.80;;;;;;6277234;28;20474;-65
2023/02/05 02:51:25;;;;;;;1.60;1.50;;;2.60;47.80;;;;;;6277761;28;20470;-65
2023/02/05 02:54:28;;;;;;;1.60;1.30;;;2.70;47.60;;;;;;6277784;28;20479;-65
2023/02/05 02:57:35;;;;;;;1.47;1.37;;;2.70;46.70;;;;;;6277478;28;20486;-65
2023/02/05 03:00:41;;;;;;;1.30;1.30;;;2.70;46.70;;;;;;6277645;28;20481;-65
2023/02/05 03:03:51;;;;;;;1.00;1.00;;;2.60;46.10;;;;;;6277814;28;20897;-65
2023/02/05 03:06:59;;;;;;;1.80;1.40;;;2.60;46.30;;;;;;6277961;28;20506;-65
2023/02/05 03:10:07;;;;;;;2.47;1.20;;;2.60;46.30;;;;;;6277664;28;20462;-65
2023/02/05 03:13:11;;;;;;;1.20;1.10;;;2.60;46.00;;;;;;6278076;28;20466;-65
2023/02/05 03:16:17;;;;;;;1.50;1.40;;;2.70;45.90;;;;;;6277363;28;20474;-65
2023/02/05 03:19:20;;;;;;;1.30;1.20;;;2.70;45.60;;;;;;6277749;28;20477;-65
2023/02/05 03:22:23;;;;;;;1.13;1.03;;;2.70;45.50;;;;;;6277338;28;20474;-65
2023/02/05 03:25:29;;;;;;;1.17;1.17;;;2.70;45.50;;;;;;6277461;28;20466;-65
2023/02/05 03:28:32;;;;;;;1.07;0.97;;;2.70;45.50;;;;;;6277205;28;20493;-65
2023/02/05 03:31:45;;;;;;;1.20;1.20;;;2.70;45.60;;;;;;6277339;28;20469;-64
2023/02/05 03:35:01;;;;;;;1.23;0.93;;;2.70;45.80;;;;;;6276941;28;20471;-64
2023/02/05 03:38:21;;;;;;;1.20;1.07;;;2.70;46.00;;;;;;6276305;28;20482;-64
2023/02/05 03:45:14;;;;;;;1.20;1.20;;;2.80;46.30;;;;;;6279626;28;20467;-64
2023/02/05 03:48:37;;;;;;;1.33;1.03;;;2.70;46.40;;;;;;6279835;28;20478;-65
2023/02/05 03:51:50;;;;;;;2.70;1.20;;;2.70;46.40;;;;;;6276269;28;20490;-65
2023/02/05 03:55:03;;;;;;;1.30;1.20;;;2.80;46.50;;;;;;6276795;28;20917;-65
2023/02/05 03:58:11;;;;;;;1.53;1.20;;;2.70;46.50;;;;;;6276507;28;20811;-65
2023/02/05 04:01:14;;;;;;;2.67;1.20;;;2.70;46.20;;;;;;6275920;28;20822;-65
2023/02/05 04:04:19;;;;;;;1.70;1.17;;;2.70;46.50;;;;;;6276355;28;20466;-65
2023/02/05 04:07:23;;;;;;;1.67;1.20;;;2.60;46.90;;;;;;6276188;28;20968;-65
2023/02/05 04:10:26;;;;;;;1.40;1.30;;;2.70;47.20;;;;;;6276130;28;20492;-64
2023/02/05 04:13:29;;;;;;;1.67;1.20;;;2.70;47.70;;;;;;6275812;28;20493;-65
2023/02/05 04:16:32;;;;;;;1.47;1.37;;;2.60;48.20;;;;;;6275757;28;20954;-65
2023/02/05 04:19:37;;;;;;;1.40;1.30;;;2.60;49.00;;;;;;6275841;28;20478;-64
2023/02/05 04:22:40;;;;;;;3.37;1.60;;;2.60;49.20;;;;;;6275802;28;20493;-64
2023/02/05 04:25:43;;;;;;;3.33;1.53;;;2.50;49.70;;;;;;6275511;28;20480;-64
2023/02/05 04:28:46;;;;;;;1.50;1.40;;;2.40;50.30;;;;;;6275469;28;20489;-64
2023/02/05 04:31:50;;;;;;;2.53;1.40;;;2.40;50.60;;;;;;6275568;28;20470;-65
2023/02/05 04:34:54;;;;;;;1.67;1.50;;;2.40;50.70;;;;;;6275744;28;20463;-64
2023/02/05 04:37:57;;;;;;;3.00;1.90;;;2.40;50.80;;;;;;6275421;28;20462;-64
2023/02/05 04:41:00;;;;;;;2.23;1.70;;;2.40;51.00;;;;;;6275574;28;20493;-64
2023/02/05 04:44:04;;;;;;;1.43;1.27;;;2.40;51.10;;;;;;6275092;28;20970;-64
2023/02/05 04:47:07;;;;;;;2.40;2.17;;;2.30;50.80;;;;;;6276408;28;20463;-64
2023/02/05 04:50:12;;;;;;;1.47;1.30;;;2.30;51.00;;;;;;6278105;28;20482;-64
2023/02/05 04:53:15;;;;;;;1.30;1.20;;;2.30;51.20;;;;;;6277866;28;20477;-65
2023/02/05 04:56:18;;;;;;;1.33;1.23;;;2.30;51.30;;;;;;6278281;28;20942;-65
2023/02/05 04:59:21;;;;;;;1.93;1.43;;;2.30;51.40;;;;;;6277480;28;20496;-65
2023/02/05 05:02:25;;;;;;;1.73;1.63;;;2.20;51.60;;;;;;6276384;28;20485;-65
2023/02/05 05:05:30;;;;;;;1.77;1.67;;;2.20;51.70;;;;;;6275458;28;20466;-66
2023/02/05 05:08:33;;;;;;;1.53;1.43;;;2.30;51.90;;;;;;6275871;28;20534;-65
2023/02/05 05:11:36;;;;;;;2.90;1.40;;;2.20;51.80;;;;;;6275116;28;20486;-65
2023/02/05 05:14:39;;;;;;;1.50;1.40;;;2.20;51.80;;;;;;6274664;28;20470;-66
2023/02/05 05:17:42;;;;;;;1.50;1.40;;;2.20;52.00;;;;;;6274573;28;20803;-66
2023/02/05 05:20:47;;;;;;;1.50;1.40;;;2.20;52.00;;;;;;6274792;28;20477;-66
2023/02/05 05:23:50;;;;;;;1.93;1.70;;;2.10;51.80;;;;;;6274288;28;20532;-66
2023/02/05 05:26:53;;;;;;;1.60;1.50;;;2.10;51.80;;;;;;6274203;28;20470;-66
2023/02/05 05:29:56;;;;;;;1.57;1.47;;;1.90;51.70;;;;;;6274575;28;20478;-66
2023/02/05 05:33:00;;;;;;;1.50;1.40;;;2.00;52.30;;;;;;6274304;28;20530;-66
2023/02/05 05:36:05;;;;;;;2.33;1.83;;;1.90;53.70;;;;;;6274131;28;21108;-65
2023/02/05 05:45:49;;;;;;;1.80;1.70;;;1.40;57.20;;;;;;6274206;28;20462;-65
2023/02/05 05:48:54;;;;;;;1.83;1.73;;;1.30;58.00;;;;;;6277766;28;20935;-66
2023/02/05 05:51:59;;;;;;;2.17;1.83;;;1.20;59.70;;;;;;6275280;28;20466;-65
2023/02/05 05:55:02;;;;;;;22.83;11.80;;;1.00;61.30;;;;;;6274144;28;20447;-65
2023/02/05 05:58:05;;;;;;;19.60;10.40;;;0.90;62.50;;;;;;6269456;28;20516;-65
2023/02/05 06:01:10;;;;;;;2.13;2.00;;;0.90;64.30;;;;;;6273938;28;20782;-65
2023/02/05 06:04:13;;;;;;;2.37;2.20;;;0.60;66.20;;;;;;6274161;28;20473;-65
2023/02/05 06:07:17;;;;;;;2.63;2.50;;;0.50;67.40;;;;;;6274285;28;20579;-64
2023/02/05 06:10:20;;;;;;;2.63;2.40;;;0.50;69.30;;;;;;6274436;28;20489;-65
2023/02/05 06:13:24;;;;;;;2.97;2.40;;;0.40;71.00;;;;;;6274120;28;20988;-65
2023/02/05 06:16:27;;;;;;;2.70;2.50;;;0.40;72.50;;;;;;6274083;28;20474;-66
2023/02/05 06:19:31;;;;;;;2.00;1.90;;;0.40;74.00;;;;;;6273618;28;20793;-66
2023/02/05 06:22:35;;;;;;;4.43;2.50;;;0.30;76.20;;;;;;6273915;28;20474;-66
2023/02/05 06:25:39;;;;;;;2.50;2.30;;;0.30;78.20;;;;;;6275232;28;20466;-65
2023/02/05 06:28:42;;;;;;;2.40;2.20;;;0.30;79.30;;;;;;6278525;28;20482;-65
2023/02/05 06:31:45;;;;;;;3.07;2.60;;;0.30;80.30;;;;;;6278396;28;20474;-65
2023/02/05 06:34:50;;;;;;;3.50;3.20;;;0.40;81.50;;;;;;6278289;28;20477;-65
2023/02/05 06:37:54;;;;;;;5.03;3.20;;;0.40;82.40;;;;;;6278176;28;20845;-64
2023/02/05 06:40:58;;;;;;;3.00;2.80;;;0.40;83.10;;;;;;6278661;28;20466;-66
2023/02/05 06:44:02;;;;;;;2.93;2.73;;;0.50;83.60;;;;;;6278278;28;20485;-65
2023/02/05 06:47:05;;;;;;;3.40;3.20;;;0.50;83.90;;;;;;6278506;28;20481;-66
2023/02/05 06:50:09;;;;;;;4.37;4.03;;;0.50;84.80;;;;;;6277649;28;20478;-66
2023/02/05 06:53:14;;;;;;;3.00;2.50;;;0.40;85.90;;;;;;6277792;28;20482;-66
2023/02/05 06:56:17;;;;;;;3.10;2.80;;;0.40;86.90;;;;;;6277713;28;20477;-66
2023/02/05 06:59:20;;;;;;;3.33;3.03;;;0.50;87.20;;;;;;6277777;28;20470;-65
2023/02/05 07:02:24;;;;;;;2.83;2.57;;;0.60;87.70;;;;;;6277513;28;20486;-65
2023/02/05 07:05:27;;;;;;;3.30;3.07;;;0.60;88.00;;;;;;6277903;28;20488;-65
2023/02/05 07:08:32;;;;;;;3.30;3.00;;;0.50;88.60;;;;;;6277621;28;20783;-65
2023/02/05 07:11:35;;;;;;;4.13;3.27;;;0.60;89.50;;;;;;6277538;28;20470;-65
2023/02/05 07:14:39;;;;;;;3.93;3.63;;;0.70;89.70;;;;;;6277782;28;20478;-66
2023/02/05 07:17:42;;;;;;;3.93;3.63;;;0.70;89.90;;;;;;6277323;28;20474;-65
2023/02/05 07:20:46;;;;;;;22.47;9.73;;;0.70;90.10;;;;;;6277591;28;20481;-65
2023/02/05 07:23:51;;;;;;;4.00;3.70;;;0.80;90.00;;;;;;6277424;28;20470;-66
2023/02/05 07:26:54;;;;;;;4.33;3.40;;;0.80;90.00;;;;;;6277201;28;20866;-66
2023/02/05 07:29:58;;;;;;;4.60;4.20;;;0.70;90.10;;;;;;6276968;28;20481;-66
2023/02/05 07:33:02;;;;;;;4.40;4.00;;;0.70;90.30;;;;;;6277396;28;20545;-66
2023/02/05 07:36:07;;;;;;;3.47;3.17;;;0.70;90.50;;;;;;6276593;28;20478;-66
2023/02/05 07:39:11;;;;;;;3.57;3.27;;;0.70;90.60;;;;;;6276293;28;20516;-66
2023/02/05 07:42:14;;;;;;;3.70;3.10;;;0.80;90.80;;;;;;6276582;28;20969;-66
2023/02/05 07:45:18;;;;;;;4.67;3.53;;;0.80;91.00;;;;;;6276741;28;20470;-66
2023/02/05 07:48:21;;;;;;;4.03;3.63;;;0.90;91.10;;;;;;6276511;28;21004;-66
2023/02/05 07:51:25;;;;;;;4.97;3.73;;;1.00;91.20;;;;;;6276429;28;20470;-66
2023/02/05 07:54:30;;;;;;;7.20;3.67;;;1.00;91.20;;;;;;6277532;28;20478;-66
2023/02/05 07:57:33;;;;;;;3.50;3.30;;;0.90;91.40;;;;;;6276506;28;20840;-65
2023/02/05 08:00:36;;;;;;;3.47;3.17;;;0.80;91.70;;;;;;6276475;28;20478;-65
2023/02/05 08:03:40;;;;;;;4.97;3.90;;;0.90;91.90;;;;;;6277362;28;20475;-65
2023/02/05 08:06:43;;;;;;;3.50;3.20;;;0.90;92.10;;;;;;6276305;28;20810;-64
2023/02/05 08:09:48;;;;;;;3.10;2.80;;;0.70;92.40;;;;;;6276229;28;20492;-64
2023/02/05 08:12:51;;;;;;;3.43;3.13;;;0.70;92.90;;;;;;6276737;28;20449;-64
2023/02/05 08:15:54;;;;;;;3.60;3.40;;;0.70;93.00;;;;;;6276127;28;20458;-65
2023/02/05 08:18:57;;;;;;;3.07;2.87;;;0.50;93.40;;;;;;6275577;28;20485;-65
2023/02/05 08:22:00;;;;;;;3.90;3.50;;;0.50;94.00;;;;;;6275798;28;20826;-65
2023/02/05 08:25:07;;;;;;;4.03;3.00;;;0.60;94.00;;;;;;6275700;28;20470;-65
2023/02/05 08:28:10;;;;;;;3.17;2.97;;;0.50;94.20;;;;;;6275807;28;20482;-65
2023/02/05 08:31:15;;;;;;;3.80;3.23;;;0.70;94.20;;;;;;6275505;28;20624;-65
2023/02/05 08:34:18;;;;;;;5.80;3.23;;;0.90;93.80;;;;;;6275645;28;20484;-65
2023/02/05 08:37:23;;;;;;;2.70;2.50;;;1.10;93.60;;;;;;6275266;28;20557;-65
2023/02/05 08:40:27;;;;;;;4.90;3.63;;;1.10;92.90;;;;;;6275106;28;20485;-64
2023/02/05 08:43:30;;;;;;;3.80;3.37;;;1.30;92.90;;;;;;6275060;28;20963;-65
2023/02/05 08:46:34;;;;;;;2.90;2.70;;;1.50;92.60;;;;;;6275239;28;20497;-65
2023/02/05 08:49:52;;;;;;;2.90;2.60;;;1.70;92.50;;;;;;6273942;28;20494;-66
2023/02/05 08:52:55;;;;;;;2.77;2.57;;;1.70;95.10;;;;;;6274169;28;20899;-66
2023/02/05 08:56:02;;;;;;;2.97;2.77;;;2.00;93.80;;;;;;6274700;28;20485;-66
2023/02/05 08:59:05;;;;;;;2.27;2.17;;;2.10;92.40;;;;;;6274430;28;20478;-66
2023/02/05 09:02:10;;;;;;;2.90;2.70;;;2.30;91.20;;;;;;6274516;28;20997;-66
2023/02/05 09:05:13;;;;;;;3.37;2.73;;;2.60;90.30;;;;;;6274532;28;20481;-66
2023/02/05 09:08:16;;;;;;;2.50;2.30;;;2.90;88.50;;;;;;6274430;28;20478;-66
2023/02/05 09:11:25;;;;;;;2.67;2.47;;;3.00;86.60;;;;;;6274984;28;20474;-66
2023/02/05 09:14:34;;;;;;;2.53;2.33;;;3.00;85.40;;;;;;6274091;28;20463;-69
2023/02/05 09:17:38;;;;;;;2.40;2.10;;;3.10;86.00;;;;;;6265212;28;20789;-65
2023/02/05 09:20:41;;;;;;;3.10;2.70;;;2.60;84.60;;;;;;6260345;28;20478;-65
2023/02/05 09:23:45;;;;;;;4.00;3.63;;;2.60;85.00;;;;;;6273836;28;20977;-65
2023/02/05 09:26:49;;;;;;;4.20;2.73;;;2.90;84.10;;;;;;6261342;28;20485;-65
2023/02/05 09:29:52;;;;;;;2.60;2.40;;;3.00;84.10;;;;;;6274365;28;20466;-65
2023/02/05 09:32:55;;;;;;;2.23;2.00;;;3.00;82.90;;;;;;6274698;28;20466;-66
2023/02/05 09:36:04;;;;;;;2.43;2.23;;;3.20;82.10;;;;;;6274197;28;20478;-65
2023/02/05 09:39:08;;;;;;;5.37;2.90;;;3.50;80.20;;;;;;6250264;28;20501;-65
2023/02/05 09:42:35;;;;;;;3.80;3.50;;;3.50;78.60;;;;;;6249773;28;20547;-65
2023/02/05 09:45:48;;;;;;;3.43;2.87;;;3.80;77.80;;;;;;6249648;28;20467;-65
2023/02/05 09:48:56;;;;;;;2.17;2.07;;;4.20;76.30;;;;;;6249466;28;20752;-65
2023/02/05 09:52:02;;;;;;;2.80;2.60;;;4.70;75.30;;;;;;6271423;28;20514;-65
2023/02/05 09:55:16;;;;;;;2.47;2.10;;;9.10;66.10;;;;;;6273846;28;20458;-65
2023/02/05 09:58:24;;;;;;;2.13;1.93;;;10.60;52.00;;;;;;6274042;28;20481;-66
2023/02/05 10:01:39;;;;;;;2.23;2.03;;;11.90;49.00;;;;;;6277970;28;20981;-66
2023/02/05 10:04:42;;;;;;;3.40;2.37;;;15.80;41.60;;;;;;6275431;28;20473;-66
2023/02/05 10:07:56;;;;;;;2.43;2.23;;;16.80;33.20;;;;;;6278285;28;20477;-66
2023/02/05 10:11:01;;;;;;;2.10;1.90;;;17.20;32.70;;;;;;6276478;28;20985;-65
2023/02/05 10:14:16;;;;;;;2.93;1.60;;;20.70;28.60;;;;;;6273948;28;20514;-66
2023/02/05 10:17:32;;;;;;;4.67;2.77;;;22.10;24.50;;;;;;6276403;28;20224;-65
2023/02/05 10:20:52;;;;;;;2.93;2.50;;;19.30;24.30;;;;;;6275768;28;20248;-64
2023/02/05 10:24:14;;;;;;;2.60;2.27;;;19.50;26.10;;;;;;6275389;28;20660;-65
2023/02/05 10:27:21;;;;;;;2.50;2.30;;;22.40;24.00;;;;;;6277996;28;20303;-65
2023/02/05 10:30:31;;;;;;;2.90;2.10;;;23.80;22.00;;;;;;6278785;28;20236;-65
2023/02/05 10:33:45;;;;;;;3.53;2.20;;;26.20;20.20;;;;;;6276091;28;20228;-65
2023/02/05 10:36:52;;;;;;;2.50;2.30;;;26.20;18.90;;;;;;6278461;28;20959;-67
2023/02/05 10:39:57;;;;;;;2.27;1.90;;;27.40;18.40;;;;;;6278487;28;20253;-66
2023/02/05 10:43:04;;;;;;;2.87;2.30;;;28.60;17.00;;;;;;6278698;28;20556;-66
2023/02/05 10:46:13;;;;;;;2.80;2.60;;;30.20;16.00;;;;;;6277991;28;20230;-67
2023/02/05 10:49:21;;;;;;;2.13;1.90;;;31.10;15.00;;;;;;6278132;28;20235;-64
2023/02/05 10:52:25;;;;;;;2.50;2.10;;;30.60;14.50;;;;;;6278801;28;20234;-65
2023/02/05 10:55:29;;;;;;;3.10;2.17;;;31.70;13.80;;;;;;6278396;28;20257;-65
2023/02/05 10:58:42;;;;;;;4.00;2.38;;;32.60;13.40;;;;;;6278209;28;20231;-67
2023/02/05 11:01:47;;;;;;;3.22;2.40;;;33.00;12.70;;;;;;6277857;28;20707;-65
2023/02/05 11:04:55;;;;;;;2.47;2.28;;;33.60;12.40;;;;;;6278305;28;20234;-65
2023/02/05 11:07:58;;;;;;;3.63;2.00;;;33.60;11.80;;;;;;6277304;28;20579;-65
2023/02/05 11:11:02;;;;;;;2.85;2.63;;;33.00;11.80;;;;;;6276829;28;20548;-65
2023/02/05 11:14:07;;;;;;;2.33;2.10;;;33.30;11.80;;;;;;6277700;28;20227;-66
2023/02/05 11:17:23;;;;;;;2.67;2.47;;;34.10;11.40;;;;;;6277804;28;20231;-65
2023/02/05 11:20:30;;;;;;;2.33;2.08;;;35.10;11.10;;;;;;6277512;28;20549;-65
2023/02/05 11:23:38;;;;;;;2.92;2.42;;;35.90;10.60;;;;;;6276854;28;20703;-65
2023/02/05 11:26:42;;;;;;;2.58;2.05;;;36.60;10.50;;;;;;6263143;28;20242;-65
2023/02/05 11:29:45;;;;;;;4.28;3.30;;;37.50;9.70;;;;;;6277215;28;20236;-66
2023/02/05 11:32:50;;;;;;;2.50;2.30;;;37.60;9.30;;;;;;6277278;28;20235;-67
2023/02/05 11:35:56;;;;;;;3.45;2.10;;;37.70;9.10;;;;;;6276678;28;20443;-67
2023/02/05 11:39:00;;;;;;;2.35;2.15;;;37.00;8.80;;;;;;6276707;28;20249;-66
2023/02/05 11:42:10;;;;;;;2.50;2.30;;;36.70;9.10;;;;;;6276635;28;20245;-65
2023/02/05 11:45:18;;;;;;;2.65;2.45;;;37.30;8.90;;;;;;6276775;28;20233;-66
2023/02/05 11:48:31;;;;;;;4.20;2.72;;;36.70;9.10;;;;;;6276566;28;20235;-65
2023/02/05 11:51:42;;;;;;;3.20;1.75;;;37.60;8.90;;;;;;6276508;28;20862;-66
2023/02/05 11:54:47;;;;;;;2.40;2.05;;;38.10;8.20;;;;;;6277003;28;20231;-67
2023/02/05 11:57:59;;;;;;;2.25;2.00;;;38.40;7.80;;;;;;6276140;28;20232;-65
2023/02/05 12:01:05;;;;;;;2.13;1.67;;;39.00;7.80;;;;;;6276169;28;20671;-65
2023/02/05 12:04:18;;;;;;;6.72;6.13;;;39.60;7.70;;;;;;6261981;28;20239;-65
2023/02/05 12:07:25;;;;;;;3.60;3.30;;;40.30;7.10;;;;;;6251221;28;20245;-65
2023/02/05 12:10:36;;;;;;;1.92;1.83;;;40.70;6.90;;;;;;6251276;28;20230;-65
2023/02/05 12:13:54;;;;;;;2.30;2.10;;;40.50;6.90;;;;;;6251410;28;20229;-65
2023/02/05 12:17:07;;;;;;;2.05;1.73;;;40.50;6.60;;;;;;6251568;28;20235;-67
2023/02/05 12:20:21;;;;;;;2.08;1.88;;;41.10;6.60;;;;;;6251245;28;20254;-65
2023/02/05 12:23:45;;;;;;;2.50;2.30;;;40.70;5.90;;;;;;6246728;28;20655;-66
2023/02/05 12:26:57;;;;;;;2.90;2.70;;;39.70;6.40;;;;;;6262998;28;20288;-65
2023/02/05 12:30:19;;;;;;;2.30;2.10;;;39.60;6.40;;;;;;6275161;28;20533;-67
2023/02/05 12:33:39;;;;;;;2.45;2.25;;;39.60;6.80;;;;;;6275294;28;20309;-67
2023/02/05 12:36:57;;;;;;;5.72;3.97;;;39.60;6.70;;;;;;6275443;28;20243;-66
2023/02/05 12:40:16;;;;;;;2.25;1.70;;;40.10;6.40;;;;;;6277809;28;20233;-66
2023/02/05 12:43:33;;;;;;;1.90;1.80;;;40.00;6.20;;;;;;6274494;28;20853;-66
2023/02/05 12:46:48;;;;;;;2.13;1.90;;;39.60;5.80;;;;;;6274137;28;20578;-67
2023/02/05 12:50:09;;;;;;;1.80;1.70;;;37.60;6.20;;;;;;6250774;28;20256;-66
2023/02/05 12:53:39;;;;;;;2.20;1.70;;;36.90;6.50;;;;;;6250489;28;20233;-67
2023/02/05 12:56:54;;;;;;;1.98;1.77;;;36.80;6.60;;;;;;6250077;28;20234;-66
2023/02/05 13:00:03;;;;;;;2.55;2.35;;;36.10;7.10;;;;;;6274279;28;20281;-66
2023/02/05 13:03:17;;;;;;;3.03;2.72;;;35.80;7.80;;;;;;6271956;28;20583;-66
2023/02/05 13:06:26;;;;;;;3.78;2.60;;;35.10;8.20;;;;;;6275505;28;20229;-66
2023/02/05 13:09:46;;;;;;;2.38;2.08;;;35.90;8.20;;;;;;6271787;28;20888;-67
2023/02/05 13:12:58;;;;;;;3.00;2.03;;;36.10;7.80;;;;;;6272318;28;20204;-66
2023/02/05 13:16:07;;;;;;;2.60;2.40;;;35.90;7.80;;;;;;6273894;28;20348;-67
2023/02/05 13:19:23;;;;;;;2.30;2.10;;;33.00;8.60;;;;;;6272633;28;20246;-67
2023/02/05 13:29:19;;;;;;;3.00;2.60;;;33.90;8.60;;;;;;6273353;28;20683;-66
2023/02/05 13:32:29;;;;;;;2.95;2.65;;;33.70;8.50;;;;;;6274258;28;20643;-66
2023/02/05 13:35:43;;;;;;;2.35;2.13;;;32.80;8.80;;;;;;6271977;28;20227;-65
2023/02/05 13:39:04;;;;;;;2.67;2.27;;;32.50;8.90;;;;;;6273994;28;20261;-66
2023/02/05 13:42:26;;;;;;;3.53;3.22;;;31.80;9.50;;;;;;6274101;28;20233;-65
2023/02/05 13:45:56;;;;;;;3.77;2.80;;;32.60;9.20;;;;;;6274305;28;20280;-67
2023/02/05 13:49:39;;;;;;;2.30;2.10;;;31.90;9.60;;;;;;6274131;28;20244;-67
2023/02/05 13:53:05;;;;;;;3.30;2.77;;;29.30;10.70;;;;;;6252210;28;20241;-67
2023/02/05 13:56:36;;;;;;;3.70;2.53;;;27.90;11.80;;;;;;6274147;28;20231;-65
2023/02/05 13:59:45;;;;;;;3.30;2.47;;;26.60;12.20;;;;;;6271607;28;20664;-66
2023/02/05 14:02:54;;;;;;;2.83;2.33;;;26.10;12.30;;;;;;6274288;28;20552;-66
2023/02/05 14:05:58;;;;;;;2.03;1.80;;;25.70;12.80;;;;;;6273984;28;20227;-66
2023/02/05 14:09:05;;;;;;;3.70;2.77;;;26.60;12.80;;;;;;6274014;28;20246;-66
2023/02/05 14:12:12;;;;;;;3.20;2.80;;;26.60;12.50;;;;;;6273402;28;20224;-67
2023/02/05 14:15:37;;;;;;;5.57;4.90;;;26.10;12.70;;;;;;6274222;28;20231;-65
2023/02/05 14:18:50;;;;;;;2.70;2.50;;;25.50;13.20;;;;;;6274093;28;20679;-65
2023/02/05 14:22:07;;;;;;;3.43;2.80;;;24.10;13.80;;;;;;6273659;28;20596;-64
2023/02/05 14:25:48;;;;;;;2.90;2.70;;;22.00;15.00;;;;;;6272224;28;20246;-64
2023/02/05 14:28:53;;;;;;;10.20;9.40;;;19.70;16.30;;;;;;6271881;28;21056;-64
2023/02/05 14:31:58;;;;;;;7.40;6.90;;;17.50;17.60;;;;;;6264427;28;20250;-65
2023/02/05 14:35:04;;;;;;;9.17;8.40;;;16.10;18.80;;;;;;6273551;28;20473;-65
2023/02/05 14:38:20;;;;;;;3.70;3.40;;;14.50;20.00;;;;;;6274006;28;20470;-65
2023/02/05 14:41:27;;;;;;;3.00;2.77;;;13.30;21.60;;;;;;6273490;28;20927;-65
2023/02/05 14:44:34;;;;;;;3.30;2.87;;;12.50;22.60;;;;;;6273340;28;20466;-64
2023/02/05 14:47:43;;;;;;;3.63;2.80;;;11.50;23.50;;;;;;6276390;28;20480;-66
2023/02/05 14:51:00;;;;;;;3.43;2.60;;;10.70;24.60;;;;;;6274088;28;20484;-64
2023/02/05 14:54:13;;;;;;;2.17;1.97;;;10.00;25.40;;;;;;6275527;28;20624;-65
2023/02/05 14:57:22;;;;;;;4.37;4.07;;;9.60;27.00;;;;;;6277459;28;20477;-65
2023/02/05 15:00:30;;;;;;;3.80;3.50;;;9.30;27.90;;;;;;6277258;28;20498;-64
2023/02/05 15:03:40;;;;;;;4.20;2.23;;;8.80;28.50;;;;;;6277031;28;20568;-65
2023/02/05 15:06:44;;;;;;;2.80;2.50;;;8.50;29.10;;;;;;6276871;28;20466;-64
2023/02/05 15:09:57;;;;;;;2.90;2.40;;;8.10;29.50;;;;;;6276815;28;20578;-64
2023/02/05 15:13:08;;;;;;;2.60;2.40;;;8.00;29.90;;;;;;6277533;28;20478;-64
2023/02/05 15:16:22;;;;;;;3.70;3.27;;;7.90;29.80;;;;;;6277275;28;20470;-64
2023/02/05 15:19:29;;;;;;;3.40;2.97;;;7.80;30.20;;;;;;6277547;28;20474;-64
2023/02/05 15:22:36;;;;;;;2.80;2.50;;;7.60;31.00;;;;;;6277517;28;20504;-64
2023/02/05 15:25:43;;;;;;;21.50;19.10;;;7.40;31.30;;;;;;6260882;28;20463;-66
2023/02/05 15:28:56;;;;;;;8.97;7.37;;;7.30;31.80;;;;;;6277257;28;20479;-66
2023/02/05 15:32:03;;;;;;;8.07;7.03;;;6.90;32.40;;;;;;6260452;28;20474;-66
2023/02/05 15:35:14;;;;;;;8.90;5.43;;;6.70;33.00;;;;;;6273734;28;20489;-65
2023/02/05 15:38:27;;;;;;;9.07;6.20;;;6.60;33.20;;;;;;6278860;28;20478;-65
2023/02/05 15:41:34;;;;;;;8.27;6.00;;;6.60;33.80;;;;;;6281252;28;20537;-65
2023/02/05 15:44:38;;;;;;;4.30;3.67;;;6.50;34.20;;;;;;6277644;28;20973;-65
2023/02/05 15:47:42;;;;;;;5.27;2.90;;;6.30;34.40;;;;;;6277807;28;20560;-65
2023/02/05 15:50:50;;;;;;;3.43;2.83;;;6.20;34.80;;;;;;6277473;28;20485;-65
2023/02/05 15:53:58;;;;;;;9.60;4.80;;;6.10;34.90;;;;;;6279129;28;20936;-66
2023/02/05 15:57:04;;;;;;;5.90;4.37;;;6.10;34.90;;;;;;6276774;28;20466;-65
2023/02/05 16:00:18;;;;;;;3.77;2.90;;;6.00;35.40;;;;;;6278094;28;20474;-64
2023/02/05 16:03:28;;;;;;;4.80;3.47;;;6.00;36.00;;;;;;6271068;28;20562;-65
2023/02/05 16:06:37;;;;;;;7.17;5.10;;;5.90;36.50;;;;;;6253163;28;20479;-65
2023/02/05 16:09:47;;;;;;;5.10;3.30;;;5.90;36.70;;;;;;6252260;28;20475;-66
2023/02/05 16:13:00;;;;;;;3.73;3.03;;;5.80;36.40;;;;;;6251931;28;20931;-65
2023/02/05 16:16:09;;;;;;;2.77;2.50;;;5.80;36.60;;;;;;6252611;28;20860;-65
2023/02/05 16:19:22;;;;;;;4.63;3.40;;;5.70;36.90;;;;;;6252103;28;20472;-66
2023/02/05 16:22:37;;;;;;;2.60;1.90;;;5.60;36.90;;;;;;6251145;28;20489;-66
2023/02/05 16:25:44;;;;;;;2.70;2.50;;;5.50;36.50;;;;;;6253359;28;20464;-65
2023/02/05 16:28:54;;;;;;;3.57;2.60;;;5.40;36.30;;;;;;6279465;28;20482;-65
2023/02/05 16:32:05;;;;;;;3.17;2.87;;;5.30;36.50;;;;;;6277907;28;20473;-65
2023/02/05 16:35:19;;;;;;;3.00;2.70;;;5.10;36.80;;;;;;6276601;28;20480;-65
2023/02/05 16:38:27;;;;;;;5.30;3.07;;;5.00;37.20;;;;;;6272413;28;20608;-64
2023/02/05 16:41:37;;;;;;;6.37;5.00;;;4.90;37.60;;;;;;6275970;28;20488;-65
2023/02/05 16:44:42;;;;;;;7.63;6.03;;;4.70;38.00;;;;;;6275868;28;20953;-65